createdAt,value
2018-05-13T00:00:17.575Z,17.59
2018-05-13T00:00:58.139Z,17.57
2018-05-13T00:01:38.743Z,17.6
2018-05-13T00:02:19.313Z,17.59
2018-05-13T00:02:59.920Z,17.57
2018-05-13T00:03:40.494Z,17.67
2018-05-13T00:04:21.065Z,17.59
2018-05-13T00:05:01.629Z,17.59
2018-05-13T00:05:42.210Z,17.57
2018-05-13T00:06:22.779Z,17.49
2018-05-13T00:07:03.362Z,17.65
2018-05-13T00:07:43.931Z,17.6
2018-05-13T00:08:24.494Z,17.57
2018-05-13T00:09:05.047Z,17.6
2018-05-13T00:09:45.612Z,17.44
2018-05-13T00:10:26.201Z,17.45
2018-05-13T00:11:06.785Z,17.48
2018-05-13T00:11:47.360Z,17.45
2018-05-13T00:12:27.991Z,17.44
2018-05-13T00:13:08.541Z,17.44
2018-05-13T00:13:49.109Z,17.46
2018-05-13T00:14:29.653Z,17.45
2018-05-13T00:15:10.228Z,17.46
2018-05-13T00:15:50.823Z,17.44
2018-05-13T00:16:31.397Z,17.44
2018-05-13T00:17:11.967Z,17.42
2018-05-13T00:17:52.521Z,17.45
2018-05-13T00:18:33.095Z,17.42
2018-05-13T00:19:13.652Z,17.44
2018-05-13T00:19:54.213Z,17.45
2018-05-13T00:20:34.784Z,17.46
2018-05-13T00:21:15.351Z,17.45
2018-05-13T00:21:55.914Z,17.44
2018-05-13T00:22:36.478Z,17.54
2018-05-13T00:23:17.038Z,17.45
2018-05-13T00:23:57.606Z,17.42
2018-05-13T00:24:38.171Z,17.46
2018-05-13T00:25:18.754Z,17.46
2018-05-13T00:25:59.311Z,17.46
2018-05-13T00:26:39.886Z,17.42
2018-05-13T00:27:20.449Z,17.45
2018-05-13T00:28:01.035Z,17.45
2018-05-13T00:28:41.603Z,17.45
2018-05-13T00:29:22.169Z,17.46
2018-05-13T00:30:02.728Z,17.52
2018-05-13T00:30:43.301Z,17.42
2018-05-13T00:31:23.867Z,17.46
2018-05-13T00:32:04.449Z,17.46
2018-05-13T00:32:44.996Z,17.51
2018-05-13T00:33:25.569Z,17.45
2018-05-13T00:34:06.131Z,17.51
2018-05-13T00:34:46.699Z,17.46
2018-05-13T00:35:27.267Z,17.48
2018-05-13T00:36:07.827Z,17.48
2018-05-13T00:36:48.388Z,17.46
2018-05-13T00:37:28.970Z,17.49
2018-05-13T00:38:09.542Z,17.45
2018-05-13T00:38:50.100Z,17.49
2018-05-13T00:39:30.687Z,17.49
2018-05-13T00:40:11.252Z,17.51
2018-05-13T00:40:51.812Z,17.48
2018-05-13T00:41:32.371Z,17.44
2018-05-13T00:42:12.958Z,17.44
2018-05-13T00:42:53.528Z,17.46
2018-05-13T00:43:34.110Z,17.51
2018-05-13T00:44:14.671Z,17.46
2018-05-13T00:44:55.256Z,17.51
2018-05-13T00:45:35.807Z,17.44
2018-05-13T00:46:16.366Z,17.45
2018-05-13T00:46:56.931Z,17.48
2018-05-13T00:47:37.479Z,17.44
2018-05-13T00:48:18.031Z,17.44
2018-05-13T00:48:58.606Z,17.46
2018-05-13T00:49:39.165Z,17.41
2018-05-13T00:50:19.719Z,17.44
2018-05-13T00:51:00.287Z,17.41
2018-05-13T00:51:40.861Z,17.42
2018-05-13T00:52:21.435Z,17.41
2018-05-13T00:53:01.989Z,17.34
2018-05-13T00:53:42.547Z,17.36
2018-05-13T00:54:23.111Z,17.34
2018-05-13T00:55:03.707Z,17.33
2018-05-13T00:55:44.264Z,17.42
2018-05-13T00:56:24.852Z,17.48
2018-05-13T00:57:05.404Z,17.46
2018-05-13T00:57:46.016Z,17.46
2018-05-13T00:58:26.562Z,17.45
2018-05-13T00:59:07.115Z,17.41
2018-05-13T00:59:47.655Z,17.48
2018-05-13T01:00:28.222Z,17.44
2018-05-13T01:01:08.776Z,17.41
2018-05-13T01:01:49.341Z,17.44
2018-05-13T01:02:29.916Z,17.45
2018-05-13T01:03:10.483Z,17.36
2018-05-13T01:03:51.039Z,17.41
2018-05-13T01:04:31.602Z,17.39
2018-05-13T01:05:12.151Z,17.42
2018-05-13T01:05:52.704Z,17.38
2018-05-13T01:06:33.272Z,17.42
2018-05-13T01:07:13.833Z,17.39
2018-05-13T01:07:54.399Z,17.38
2018-05-13T01:08:34.966Z,17.36
2018-05-13T01:09:15.526Z,17.36
2018-05-13T01:09:56.076Z,17.36
2018-05-13T01:10:36.632Z,17.3
2018-05-13T01:11:17.206Z,17.31
2018-05-13T01:11:57.794Z,17.36
2018-05-13T01:12:38.341Z,17.33
2018-05-13T01:13:18.906Z,17.3
2018-05-13T01:13:59.467Z,17.34
2018-05-13T01:14:40.042Z,17.34
2018-05-13T01:15:20.591Z,17.34
2018-05-13T01:16:01.153Z,17.33
2018-05-13T01:16:41.734Z,17.33
2018-05-13T01:17:22.400Z,17.34
2018-05-13T01:18:02.965Z,17.31
2018-05-13T01:18:43.588Z,17.3
2018-05-13T01:19:24.152Z,17.33
2018-05-13T01:20:04.748Z,17.31
2018-05-13T01:20:45.286Z,17.39
2018-05-13T01:21:25.861Z,17.34
2018-05-13T01:22:06.485Z,17.3
2018-05-13T01:22:47.050Z,17.31
2018-05-13T01:23:27.600Z,17.39
2018-05-13T01:24:08.212Z,17.39
2018-05-13T01:24:48.827Z,17.33
2018-05-13T01:25:29.384Z,17.29
2018-05-13T01:26:09.958Z,17.36
2018-05-13T01:26:50.537Z,17.33
2018-05-13T01:27:31.102Z,17.38
2018-05-13T01:28:11.677Z,17.3
2018-05-13T01:28:52.233Z,17.34
2018-05-13T01:29:32.839Z,17.23
2018-05-13T01:30:13.445Z,17.27
2018-05-13T01:30:54.018Z,17.33
2018-05-13T01:31:34.568Z,17.31
2018-05-13T01:32:15.135Z,17.19
2018-05-13T01:32:55.704Z,17.26
2018-05-13T01:33:36.268Z,17.22
2018-05-13T01:34:16.840Z,17.3
2018-05-13T01:34:57.399Z,17.27
2018-05-13T01:35:37.972Z,17.31
2018-05-13T01:36:18.536Z,17.27
2018-05-13T01:36:59.098Z,17.34
2018-05-13T01:37:39.659Z,17.27
2018-05-13T01:38:20.234Z,17.34
2018-05-13T01:39:00.814Z,17.34
2018-05-13T01:39:41.361Z,17.38
2018-05-13T01:40:21.929Z,17.24
2018-05-13T01:41:02.479Z,17.27
2018-05-13T01:41:43.075Z,17.26
2018-05-13T01:42:23.685Z,17.29
2018-05-13T01:43:04.236Z,17.26
2018-05-13T01:43:44.781Z,17.33
2018-05-13T01:44:25.357Z,17.3
2018-05-13T01:45:05.908Z,17.34
2018-05-13T01:45:46.520Z,17.33
2018-05-13T01:46:27.080Z,17.23
2018-05-13T01:47:07.670Z,17.22
2018-05-13T01:47:48.226Z,17.24
2018-05-13T01:48:28.797Z,17.16
2018-05-13T01:49:09.366Z,17.2
2018-05-13T01:49:49.931Z,17.2
2018-05-13T01:50:30.504Z,17.19
2018-05-13T01:51:11.046Z,17.15
2018-05-13T01:51:51.615Z,17.24
2018-05-13T01:52:32.175Z,17.19
2018-05-13T01:53:12.733Z,17.23
2018-05-13T01:53:53.321Z,17.15
2018-05-13T01:54:33.899Z,17.24
2018-05-13T01:55:14.516Z,17.24
2018-05-13T01:55:55.079Z,17.24
2018-05-13T01:56:35.643Z,17.22
2018-05-13T01:57:16.197Z,17.23
2018-05-13T01:57:56.766Z,17.16
2018-05-13T01:58:37.337Z,17.19
2018-05-13T01:59:17.890Z,17.22
2018-05-13T01:59:58.468Z,17.23
2018-05-13T02:00:39.041Z,17.2
2018-05-13T02:01:19.615Z,17.2
2018-05-13T02:02:00.174Z,17.24
2018-05-13T02:02:40.751Z,17.23
2018-05-13T02:03:21.341Z,17.26
2018-05-13T02:04:01.925Z,17.22
2018-05-13T02:04:42.497Z,17.27
2018-05-13T02:05:23.055Z,17.22
2018-05-13T02:06:03.663Z,17.2
2018-05-13T02:06:44.239Z,17.16
2018-05-13T02:07:24.805Z,17.24
2018-05-13T02:08:05.380Z,17.27
2018-05-13T02:08:45.966Z,17.27
2018-05-13T02:09:26.562Z,17.23
2018-05-13T02:10:07.123Z,17.2
2018-05-13T02:10:47.683Z,17.24
2018-05-13T02:11:28.236Z,17.16
2018-05-13T02:12:08.797Z,17.22
2018-05-13T02:12:49.355Z,17.26
2018-05-13T02:13:29.948Z,17.26
2018-05-13T02:14:10.491Z,17.26
2018-05-13T02:14:51.061Z,17.23
2018-05-13T02:15:31.624Z,17.27
2018-05-13T02:16:12.275Z,17.22
2018-05-13T02:16:52.846Z,17.19
2018-05-13T02:17:33.410Z,17.15
2018-05-13T02:18:13.969Z,17.19
2018-05-13T02:18:54.545Z,17.23
2018-05-13T02:19:35.097Z,17.11
2018-05-13T02:20:15.663Z,17.14
2018-05-13T02:20:56.220Z,17.19
2018-05-13T02:21:36.862Z,17.23
2018-05-13T02:22:17.360Z,17.27
2018-05-13T02:22:57.948Z,17.22
2018-05-13T02:23:38.507Z,17.26
2018-05-13T02:24:19.096Z,17.19
2018-05-13T02:24:59.703Z,17.26
2018-05-13T02:25:40.283Z,17.22
2018-05-13T02:26:20.875Z,17.23
2018-05-13T02:27:01.450Z,17.16
2018-05-13T02:27:42.032Z,17.26
2018-05-13T02:28:22.607Z,17.26
2018-05-13T02:29:03.164Z,17.16
2018-05-13T02:29:43.730Z,17.2
2018-05-13T02:30:24.290Z,17.22
2018-05-13T02:31:04.855Z,17.24
2018-05-13T02:31:45.448Z,17.24
2018-05-13T02:32:26.012Z,17.19
2018-05-13T02:33:06.565Z,17.27
2018-05-13T02:33:47.117Z,17.23
2018-05-13T02:34:27.685Z,17.16
2018-05-13T02:35:08.260Z,17.19
2018-05-13T02:35:48.824Z,17.14
2018-05-13T02:36:29.390Z,17.14
2018-05-13T02:37:09.972Z,17.24
2018-05-13T02:37:50.525Z,17.24
2018-05-13T02:38:31.101Z,17.23
2018-05-13T02:39:11.659Z,17.2
2018-05-13T02:39:52.245Z,17.23
2018-05-13T02:40:32.811Z,17.27
2018-05-13T02:41:13.402Z,17.24
2018-05-13T02:41:53.947Z,17.24
2018-05-13T02:42:34.499Z,17.22
2018-05-13T02:43:15.059Z,17.26
2018-05-13T02:43:55.635Z,17.23
2018-05-13T02:44:36.186Z,17.22
2018-05-13T02:45:16.825Z,17.26
2018-05-13T02:45:57.370Z,17.24
2018-05-13T02:46:37.936Z,17.19
2018-05-13T02:47:18.505Z,17.26
2018-05-13T02:47:59.064Z,17.2
2018-05-13T02:48:39.627Z,17.26
2018-05-13T02:49:20.172Z,17.23
2018-05-13T02:50:00.740Z,17.23
2018-05-13T02:50:41.313Z,17.23
2018-05-13T02:51:21.869Z,17.15
2018-05-13T02:52:02.551Z,17.12
2018-05-13T02:52:43.019Z,17.2
2018-05-13T02:53:23.599Z,17.11
2018-05-13T02:54:04.149Z,17.2
2018-05-13T02:54:44.716Z,17.19
2018-05-13T02:55:25.297Z,17.16
2018-05-13T02:56:05.856Z,17.11
2018-05-13T02:56:46.422Z,17.19
2018-05-13T02:57:26.999Z,17.16
2018-05-13T02:58:07.567Z,17.12
2018-05-13T02:58:48.135Z,17.11
2018-05-13T02:59:28.701Z,17.09
2018-05-13T03:00:09.270Z,17.09
2018-05-13T03:00:49.829Z,17.11
2018-05-13T03:01:30.396Z,17.06
2018-05-13T03:02:10.959Z,17.05
2018-05-13T03:02:51.561Z,17.02
2018-05-13T03:03:32.134Z,17.11
2018-05-13T03:04:12.714Z,16.99
2018-05-13T03:04:53.275Z,17.02
2018-05-13T03:05:33.821Z,17.05
2018-05-13T03:06:14.396Z,17.04
2018-05-13T03:06:54.951Z,17.04
2018-05-13T03:07:35.530Z,17.02
2018-05-13T03:08:16.092Z,17.04
2018-05-13T03:08:56.644Z,17.02
2018-05-13T03:09:37.218Z,17.04
2018-05-13T03:10:17.786Z,17.04
2018-05-13T03:10:58.362Z,17.02
2018-05-13T03:11:38.931Z,16.99
2018-05-13T03:12:19.483Z,17.09
2018-05-13T03:13:00.023Z,17.02
2018-05-13T03:13:40.632Z,17.05
2018-05-13T03:14:21.159Z,17.02
2018-05-13T03:15:01.721Z,16.99
2018-05-13T03:15:42.310Z,17.01
2018-05-13T03:16:22.894Z,17.04
2018-05-13T03:17:03.479Z,17.06
2018-05-13T03:17:44.039Z,17.02
2018-05-13T03:18:24.620Z,17.02
2018-05-13T03:19:05.301Z,17.05
2018-05-13T03:19:45.798Z,16.99
2018-05-13T03:20:26.351Z,17.01
2018-05-13T03:21:06.924Z,17.01
2018-05-13T03:21:47.503Z,17.09
2018-05-13T03:22:28.046Z,17.04
2018-05-13T03:23:08.606Z,17.04
2018-05-13T03:23:49.162Z,17.05
2018-05-13T03:24:29.766Z,17.05
2018-05-13T03:25:10.294Z,17.04
2018-05-13T03:25:50.859Z,17.04
2018-05-13T03:26:31.409Z,17.05
2018-05-13T03:27:11.977Z,17.04
2018-05-13T03:27:52.548Z,17.04
2018-05-13T03:28:33.118Z,17.04
2018-05-13T03:29:13.679Z,17.02
2018-05-13T03:29:54.248Z,17.06
2018-05-13T03:30:34.820Z,17.06
2018-05-13T03:31:15.374Z,17.05
2018-05-13T03:31:55.932Z,17.04
2018-05-13T03:32:36.477Z,17.02
2018-05-13T03:33:17.027Z,17.01
2018-05-13T03:33:57.596Z,17.06
2018-05-13T03:34:38.140Z,17.04
2018-05-13T03:35:18.709Z,17.04
2018-05-13T03:35:59.271Z,16.99
2018-05-13T03:36:39.832Z,16.99
2018-05-13T03:37:20.424Z,17.02
2018-05-13T03:38:00.987Z,16.93
2018-05-13T03:38:41.562Z,16.94
2018-05-13T03:39:22.185Z,16.96
2018-05-13T03:40:02.752Z,16.94
2018-05-13T03:40:43.304Z,16.94
2018-05-13T03:41:23.879Z,16.89
2018-05-13T03:42:04.461Z,16.93
2018-05-13T03:42:45.022Z,16.9
2018-05-13T03:43:25.579Z,16.9
2018-05-13T03:44:06.143Z,16.89
2018-05-13T03:44:46.706Z,16.87
2018-05-13T03:45:27.275Z,16.86
2018-05-13T03:46:07.844Z,16.84
2018-05-13T03:46:48.402Z,16.81
2018-05-13T03:47:28.959Z,16.81
2018-05-13T03:48:09.523Z,16.89
2018-05-13T03:48:50.129Z,16.83
2018-05-13T03:49:30.687Z,16.76
2018-05-13T03:50:11.248Z,16.83
2018-05-13T03:50:51.798Z,16.86
2018-05-13T03:51:32.389Z,16.86
2018-05-13T03:52:12.973Z,16.91
2018-05-13T03:52:53.525Z,16.9
2018-05-13T03:53:34.090Z,16.96
2018-05-13T03:54:14.661Z,16.9
2018-05-13T03:54:55.224Z,16.9
2018-05-13T03:55:35.795Z,16.93
2018-05-13T03:56:16.353Z,16.83
2018-05-13T03:56:56.909Z,16.94
2018-05-13T03:57:37.483Z,16.9
2018-05-13T03:58:18.049Z,16.93
2018-05-13T03:58:58.619Z,16.97
2018-05-13T03:59:39.206Z,16.96
2018-05-13T04:00:19.763Z,16.84
2018-05-13T04:01:00.348Z,16.9
2018-05-13T04:01:40.922Z,16.96
2018-05-13T04:02:21.495Z,16.89
2018-05-13T04:03:02.059Z,16.89
2018-05-13T04:03:42.621Z,16.9
2018-05-13T04:04:23.175Z,16.94
2018-05-13T04:05:03.780Z,16.94
2018-05-13T04:05:44.366Z,16.9
2018-05-13T04:06:25.025Z,16.93
2018-05-13T04:07:05.539Z,16.94
2018-05-13T04:07:46.113Z,16.93
2018-05-13T04:08:26.705Z,16.96
2018-05-13T04:09:07.252Z,16.94
2018-05-13T04:09:47.813Z,16.93
2018-05-13T04:10:28.387Z,16.96
2018-05-13T04:11:08.957Z,16.9
2018-05-13T04:11:49.524Z,16.91
2018-05-13T04:12:30.087Z,16.91
2018-05-13T04:13:10.657Z,16.91
2018-05-13T04:13:51.227Z,16.93
2018-05-13T04:14:31.785Z,16.94
2018-05-13T04:15:12.366Z,16.96
2018-05-13T04:15:52.923Z,17.01
2018-05-13T04:16:33.508Z,17.01
2018-05-13T04:17:14.068Z,16.99
2018-05-13T04:17:54.651Z,16.99
2018-05-13T04:18:35.235Z,16.97
2018-05-13T04:19:15.801Z,17.02
2018-05-13T04:19:56.358Z,17.02
2018-05-13T04:20:36.902Z,17.05
2018-05-13T04:21:17.473Z,17.02
2018-05-13T04:21:58.007Z,17.05
2018-05-13T04:22:38.574Z,17.11
2018-05-13T04:23:19.136Z,16.99
2018-05-13T04:23:59.709Z,17.05
2018-05-13T04:24:40.281Z,17.06
2018-05-13T04:25:20.859Z,17.06
2018-05-13T04:26:01.423Z,17.02
2018-05-13T04:26:41.990Z,17.02
2018-05-13T04:27:22.547Z,17.08
2018-05-13T04:28:03.111Z,17.08
2018-05-13T04:28:43.687Z,17.08
2018-05-13T04:29:24.254Z,17.06
2018-05-13T04:30:04.880Z,17.01
2018-05-13T04:30:45.435Z,17.08
2018-05-13T04:31:26.023Z,17.08
2018-05-13T04:32:06.609Z,17.05
2018-05-13T04:32:47.171Z,17.08
2018-05-13T04:33:27.704Z,17.04
2018-05-13T04:34:08.281Z,17.08
2018-05-13T04:34:48.839Z,17.15
2018-05-13T04:35:29.404Z,17.02
2018-05-13T04:36:09.980Z,17.08
2018-05-13T04:36:50.568Z,17.06
2018-05-13T04:37:31.141Z,17.08
2018-05-13T04:38:11.717Z,17.14
2018-05-13T04:38:52.259Z,17.14
2018-05-13T04:39:32.834Z,17.16
2018-05-13T04:40:13.396Z,17.15
2018-05-13T04:40:53.942Z,17.12
2018-05-13T04:41:34.513Z,17.26
2018-05-13T04:42:15.086Z,17.09
2018-05-13T04:42:55.632Z,17.27
2018-05-13T04:43:36.194Z,17.23
2018-05-13T04:44:16.746Z,17.22
2018-05-13T04:44:57.281Z,17.19
2018-05-13T04:45:37.828Z,17.22
2018-05-13T04:46:18.408Z,17.24
2018-05-13T04:46:59.004Z,17.16
2018-05-13T04:47:39.582Z,17.23
2018-05-13T04:48:20.177Z,17.26
2018-05-13T04:49:00.759Z,17.16
2018-05-13T04:49:41.308Z,17.27
2018-05-13T04:50:21.887Z,17.24
2018-05-13T04:51:02.438Z,17.33
2018-05-13T04:51:43.009Z,17.29
2018-05-13T04:52:23.598Z,17.27
2018-05-13T04:53:04.149Z,17.34
2018-05-13T04:53:44.692Z,17.36
2018-05-13T04:54:25.350Z,17.31
2018-05-13T04:55:05.890Z,17.33
2018-05-13T04:55:46.460Z,17.36
2018-05-13T04:56:27.012Z,17.38
2018-05-13T04:57:07.600Z,17.3
2018-05-13T04:57:48.180Z,17.31
2018-05-13T04:58:28.741Z,17.41
2018-05-13T04:59:09.333Z,17.34
2018-05-13T04:59:49.878Z,17.33
2018-05-13T05:00:30.473Z,17.36
2018-05-13T05:01:11.015Z,17.36
2018-05-13T05:01:51.560Z,17.39
2018-05-13T05:02:32.132Z,17.36
2018-05-13T05:03:12.722Z,17.3
2018-05-13T05:03:53.280Z,17.34
2018-05-13T05:04:33.845Z,17.42
2018-05-13T05:05:14.448Z,17.38
2018-05-13T05:05:55.925Z,17.42
2018-05-13T05:06:37.011Z,17.36
2018-05-13T05:07:19.425Z,17.42
2018-05-13T05:08:01.090Z,17.39
2018-05-13T05:08:42.948Z,17.45
2018-05-13T05:09:24.158Z,17.42
2018-05-13T05:10:06.138Z,17.45
2018-05-13T05:10:48.157Z,17.52
2018-05-13T05:11:29.237Z,17.46
2018-05-13T05:12:12.896Z,17.44
2018-05-13T05:12:55.406Z,17.46
2018-05-13T05:13:36.544Z,17.48
2018-05-13T05:14:18.644Z,17.45
2018-05-13T05:15:01.658Z,17.44
2018-05-13T05:15:42.931Z,17.44
2018-05-13T05:16:24.133Z,17.49
2018-05-13T05:17:05.348Z,17.46
2018-05-13T05:17:46.484Z,17.48
2018-05-13T05:18:29.626Z,17.6
2018-05-13T05:19:11.394Z,17.6
2018-05-13T05:19:53.163Z,17.59
2018-05-13T05:20:34.329Z,17.65
2018-05-13T05:21:15.510Z,17.64
2018-05-13T05:21:56.657Z,17.64
2018-05-13T05:22:39.091Z,17.54
2018-05-13T05:23:21.148Z,17.67
2018-05-13T05:24:02.333Z,17.64
2018-05-13T05:24:44.163Z,17.71
2018-05-13T05:25:25.319Z,17.72
2018-05-13T05:26:06.557Z,17.76
2018-05-13T05:26:47.751Z,17.67
2018-05-13T05:27:29.861Z,17.74
2018-05-13T05:28:11.057Z,17.7
2018-05-13T05:28:52.912Z,17.76
2018-05-13T05:29:34.082Z,17.9
2018-05-13T05:30:15.323Z,17.86
2018-05-13T05:30:56.479Z,17.9
2018-05-13T05:31:37.509Z,17.87
2018-05-13T05:32:18.126Z,17.9
2018-05-13T05:32:58.637Z,17.98
2018-05-13T05:33:39.187Z,18.03
2018-05-13T05:34:19.758Z,18.13
2018-05-13T05:35:00.315Z,18.19
2018-05-13T05:35:40.929Z,18.26
2018-05-13T05:36:21.472Z,18.31
2018-05-13T05:37:02.044Z,18.37
2018-05-13T05:37:42.623Z,18.4
2018-05-13T05:38:23.187Z,18.47
2018-05-13T05:39:03.761Z,18.45
2018-05-13T05:39:44.340Z,18.53
2018-05-13T05:40:24.929Z,18.62
2018-05-13T05:41:05.503Z,18.71
2018-05-13T05:41:46.089Z,18.74
2018-05-13T05:42:26.643Z,18.89
2018-05-13T05:43:07.227Z,18.92
2018-05-13T05:43:47.775Z,18.96
2018-05-13T05:44:28.345Z,19.02
2018-05-13T05:45:08.920Z,19.12
2018-05-13T05:45:49.501Z,19.22
2018-05-13T05:46:30.060Z,19.22
2018-05-13T05:47:10.633Z,19.33
2018-05-13T05:47:51.189Z,19.33
2018-05-13T05:48:32.729Z,19.4
2018-05-13T05:49:13.792Z,19.44
2018-05-13T05:49:54.882Z,19.48
2018-05-13T05:50:35.620Z,19.62
2018-05-13T05:51:16.252Z,19.67
2018-05-13T05:51:56.811Z,19.7
2018-05-13T05:52:37.371Z,19.84
2018-05-13T05:53:17.948Z,19.92
2018-05-13T05:53:58.541Z,20
2018-05-13T05:54:39.123Z,20
2018-05-13T05:55:19.717Z,20.03
2018-05-13T05:56:00.298Z,20.06
2018-05-13T05:56:40.868Z,20.13
2018-05-13T05:57:21.455Z,20.25
2018-05-13T05:58:02.014Z,20.37
2018-05-13T05:58:42.548Z,20.4
2018-05-13T05:59:23.106Z,20.5
2018-05-13T06:00:03.683Z,20.51
2018-05-13T06:00:44.272Z,20.58
2018-05-13T06:01:24.847Z,20.6
2018-05-13T06:02:05.421Z,20.66
2018-05-13T06:02:45.989Z,20.7
2018-05-13T06:03:26.549Z,20.8
2018-05-13T06:04:07.147Z,20.81
2018-05-13T06:04:47.708Z,20.74
2018-05-13T06:05:28.282Z,20.77
2018-05-13T06:06:08.838Z,20.78
2018-05-13T06:06:49.410Z,20.77
2018-05-13T06:07:29.999Z,20.81
2018-05-13T06:08:10.548Z,20.84
2018-05-13T06:08:51.115Z,20.82
2018-05-13T06:09:31.672Z,20.84
2018-05-13T06:10:12.238Z,20.84
2018-05-13T06:10:52.825Z,20.93
2018-05-13T06:11:33.409Z,20.97
2018-05-13T06:12:14.016Z,21
2018-05-13T06:12:54.580Z,21.09
2018-05-13T06:13:35.178Z,21.02
2018-05-13T06:14:15.734Z,21.2
2018-05-13T06:14:56.300Z,21.27
2018-05-13T06:15:36.861Z,21.48
2018-05-13T06:16:17.434Z,21.48
2018-05-13T06:16:58.018Z,21.48
2018-05-13T06:17:38.582Z,21.64
2018-05-13T06:18:19.146Z,21.6
2018-05-13T06:18:59.715Z,21.7
2018-05-13T06:19:40.313Z,21.64
2018-05-13T06:20:20.836Z,21.67
2018-05-13T06:21:01.467Z,21.72
2018-05-13T06:21:42.039Z,21.82
2018-05-13T06:22:22.632Z,21.82
2018-05-13T06:23:03.193Z,21.83
2018-05-13T06:23:43.768Z,21.83
2018-05-13T06:24:24.350Z,21.96
2018-05-13T06:25:05.027Z,21.95
2018-05-13T06:25:45.484Z,22.06
2018-05-13T06:26:26.050Z,22.08
2018-05-13T06:27:06.612Z,22.02
2018-05-13T06:27:47.187Z,22.1
2018-05-13T06:28:27.769Z,22.06
2018-05-13T06:29:08.376Z,22.08
2018-05-13T06:29:48.933Z,22.07
2018-05-13T06:30:29.502Z,22.15
2018-05-13T06:31:10.080Z,22.17
2018-05-13T06:31:50.701Z,22.25
2018-05-13T06:32:31.285Z,22.23
2018-05-13T06:33:11.865Z,22.33
2018-05-13T06:33:52.430Z,22.25
2018-05-13T06:34:33.080Z,22.3
2018-05-13T06:35:13.642Z,22.29
2018-05-13T06:35:54.259Z,22.25
2018-05-13T06:36:34.790Z,22.28
2018-05-13T06:37:15.362Z,22.41
2018-05-13T06:37:55.936Z,22.29
2018-05-13T06:38:36.506Z,22.44
2018-05-13T06:39:17.069Z,22.5
2018-05-13T06:39:57.655Z,22.48
2018-05-13T06:40:38.230Z,22.54
2018-05-13T06:41:18.791Z,22.62
2018-05-13T06:41:59.358Z,22.59
2018-05-13T06:42:39.965Z,22.65
2018-05-13T06:43:20.526Z,22.66
2018-05-13T06:44:01.103Z,22.66
2018-05-13T06:44:41.710Z,22.62
2018-05-13T06:45:22.309Z,22.66
2018-05-13T06:46:02.851Z,22.7
2018-05-13T06:46:43.412Z,22.72
2018-05-13T06:47:24.002Z,22.72
2018-05-13T06:48:04.581Z,22.62
2018-05-13T06:48:45.157Z,22.76
2018-05-13T06:49:25.745Z,22.68
2018-05-13T06:50:06.349Z,22.72
2018-05-13T06:50:46.973Z,22.84
2018-05-13T06:51:27.541Z,22.78
2018-05-13T06:52:08.105Z,22.96
2018-05-13T06:52:48.708Z,22.99
2018-05-13T06:53:29.256Z,22.96
2018-05-13T06:54:09.845Z,23.06
2018-05-13T06:54:50.391Z,23
2018-05-13T06:55:30.979Z,23.09
2018-05-13T06:56:11.552Z,23.1
2018-05-13T06:56:52.137Z,23.21
2018-05-13T06:57:32.753Z,23.17
2018-05-13T06:58:13.327Z,23.08
2018-05-13T06:58:53.898Z,23.15
2018-05-13T06:59:34.477Z,23.12
2018-05-13T07:00:15.049Z,23.2
2018-05-13T07:00:55.626Z,23.17
2018-05-13T07:01:36.203Z,23.27
2018-05-13T07:02:16.783Z,23.36
2018-05-13T07:02:57.345Z,23.39
2018-05-13T07:03:37.955Z,23.31
2018-05-13T07:04:18.521Z,23.47
2018-05-13T07:04:59.108Z,23.47
2018-05-13T07:05:39.674Z,23.55
2018-05-13T07:06:20.246Z,23.56
2018-05-13T07:07:00.847Z,23.5
2018-05-13T07:07:41.443Z,23.62
2018-05-13T07:08:22.032Z,23.51
2018-05-13T07:09:02.570Z,23.63
2018-05-13T07:09:43.150Z,23.61
2018-05-13T07:10:23.740Z,23.63
2018-05-13T07:11:04.300Z,23.69
2018-05-13T07:11:44.863Z,23.74
2018-05-13T07:12:25.422Z,23.76
2018-05-13T07:13:05.979Z,23.77
2018-05-13T07:13:46.563Z,23.83
2018-05-13T07:14:27.134Z,23.88
2018-05-13T07:15:07.743Z,23.83
2018-05-13T07:15:48.309Z,23.87
2018-05-13T07:16:28.940Z,23.98
2018-05-13T07:17:09.466Z,23.96
2018-05-13T07:17:50.043Z,23.96
2018-05-13T07:18:30.613Z,24.01
2018-05-13T07:19:11.183Z,24.14
2018-05-13T07:19:51.766Z,24.14
2018-05-13T07:20:32.375Z,24.11
2018-05-13T07:21:13.186Z,24.18
2018-05-13T07:21:54.382Z,24.14
2018-05-13T07:22:35.375Z,24.18
2018-05-13T07:23:16.170Z,24.2
2018-05-13T07:23:56.887Z,24.26
2018-05-13T07:24:37.890Z,24.21
2018-05-13T07:25:19.684Z,24.23
2018-05-13T07:26:01.237Z,24.28
2018-05-13T07:26:41.974Z,24.32
2018-05-13T07:27:22.522Z,24.32
2018-05-13T07:28:03.215Z,24.36
2018-05-13T07:28:44.114Z,24.36
2018-05-13T07:29:24.701Z,24.28
2018-05-13T07:30:05.423Z,24.33
2018-05-13T07:30:46.392Z,24.32
2018-05-13T07:31:27.380Z,24.35
2018-05-13T07:32:07.960Z,24.45
2018-05-13T07:32:48.540Z,24.39
2018-05-13T07:33:29.123Z,24.4
2018-05-13T07:34:09.704Z,24.5
2018-05-13T07:34:50.299Z,24.54
2018-05-13T07:35:30.886Z,24.47
2018-05-13T07:36:11.495Z,24.45
2018-05-13T07:36:52.069Z,24.54
2018-05-13T07:37:32.639Z,24.57
2018-05-13T07:38:13.247Z,24.53
2018-05-13T07:38:53.843Z,24.63
2018-05-13T07:39:34.430Z,24.65
2018-05-13T07:40:15.014Z,24.68
2018-05-13T07:40:55.586Z,24.7
2018-05-13T07:41:36.163Z,24.63
2018-05-13T07:42:16.759Z,24.73
2018-05-13T07:42:57.323Z,24.76
2018-05-13T07:43:37.899Z,24.7
2018-05-13T07:44:18.496Z,24.7
2018-05-13T07:44:59.057Z,24.63
2018-05-13T07:45:39.640Z,24.65
2018-05-13T07:46:20.220Z,24.68
2018-05-13T07:47:00.799Z,24.57
2018-05-13T07:47:41.377Z,24.58
2018-05-13T07:48:21.959Z,24.63
2018-05-13T07:49:02.570Z,24.61
2018-05-13T07:49:43.173Z,24.58
2018-05-13T07:50:23.837Z,24.51
2018-05-13T07:51:04.442Z,24.48
2018-05-13T07:51:45.003Z,24.55
2018-05-13T07:52:25.593Z,24.58
2018-05-13T07:53:06.191Z,24.53
2018-05-13T07:53:46.774Z,24.55
2018-05-13T07:54:27.369Z,24.61
2018-05-13T07:55:07.964Z,24.6
2018-05-13T07:55:48.523Z,24.61
2018-05-13T07:56:29.109Z,24.65
2018-05-13T07:57:09.653Z,24.63
2018-05-13T07:57:50.255Z,24.6
2018-05-13T07:58:30.815Z,24.65
2018-05-13T07:59:11.394Z,24.68
2018-05-13T07:59:51.972Z,24.7
2018-05-13T08:00:32.530Z,24.74
2018-05-13T08:01:13.101Z,24.7
2018-05-13T08:01:53.694Z,24.73
2018-05-13T08:02:34.253Z,24.84
2018-05-13T08:03:14.845Z,24.8
2018-05-13T08:03:55.454Z,24.89
2018-05-13T08:04:35.999Z,24.81
2018-05-13T08:05:16.558Z,24.91
2018-05-13T08:05:57.175Z,24.86
2018-05-13T08:06:37.755Z,24.85
2018-05-13T08:07:18.348Z,24.8
2018-05-13T08:07:58.929Z,24.8
2018-05-13T08:08:39.519Z,24.8
2018-05-13T08:09:20.185Z,24.81
2018-05-13T08:10:01.083Z,24.89
2018-05-13T08:10:41.671Z,24.85
2018-05-13T08:11:22.244Z,24.81
2018-05-13T08:12:02.854Z,24.81
2018-05-13T08:12:43.436Z,24.81
2018-05-13T08:13:24.031Z,24.81
2018-05-13T08:14:04.658Z,24.76
2018-05-13T08:14:45.222Z,24.76
2018-05-13T08:15:25.814Z,24.78
2018-05-13T08:16:06.526Z,24.81
2018-05-13T08:16:47.122Z,24.77
2018-05-13T08:17:27.717Z,24.78
2018-05-13T08:18:08.321Z,24.7
2018-05-13T08:18:48.924Z,24.85
2018-05-13T08:19:29.571Z,24.86
2018-05-13T08:20:10.277Z,24.81
2018-05-13T08:20:50.729Z,24.7
2018-05-13T08:21:31.311Z,24.74
2018-05-13T08:22:11.873Z,24.74
2018-05-13T08:22:52.478Z,24.76
2018-05-13T08:23:33.113Z,24.69
2018-05-13T08:24:13.716Z,24.74
2018-05-13T08:24:54.319Z,24.68
2018-05-13T08:25:34.872Z,24.63
2018-05-13T08:26:15.451Z,24.61
2018-05-13T08:26:56.024Z,24.6
2018-05-13T08:27:36.634Z,24.65
2018-05-13T08:28:17.218Z,24.6
2018-05-13T08:28:57.785Z,24.63
2018-05-13T08:29:38.418Z,24.4
2018-05-13T08:30:19.010Z,24.53
2018-05-13T08:30:59.784Z,24.5
2018-05-13T08:31:40.180Z,24.47
2018-05-13T08:32:20.738Z,24.55
2018-05-13T08:33:01.303Z,24.55
2018-05-13T08:33:41.956Z,24.55
2018-05-13T08:34:22.539Z,24.43
2018-05-13T08:35:03.133Z,24.53
2018-05-13T08:35:43.706Z,24.53
2018-05-13T08:36:24.279Z,24.54
2018-05-13T08:37:04.931Z,24.58
2018-05-13T08:37:45.524Z,24.6
2018-05-13T08:38:26.096Z,24.53
2018-05-13T08:39:06.680Z,24.66
2018-05-13T08:39:47.259Z,24.65
2018-05-13T08:40:27.812Z,24.57
2018-05-13T08:41:08.402Z,24.65
2018-05-13T08:41:49.088Z,24.66
2018-05-13T08:42:29.531Z,24.6
2018-05-13T08:43:10.108Z,24.58
2018-05-13T08:43:50.699Z,24.53
2018-05-13T08:44:31.258Z,24.5
2018-05-13T08:45:11.822Z,24.5